sensor_id;sensor_type;location;lat;lon;timestamp;temperature;humidity
30572;DHT22;17348;50.948;10.696;2022-08-01T00:00:54;19.90;99.90
30572;DHT22;17348;50.948;10.696;2022-08-01T00:03:57;19.80;99.90
30572;DHT22;17348;50.948;10.696;2022-08-01T00:06:59;19.80;99.90
30572;DHT22;17348;50.948;10.696;2022-08-01T00:10:02;19.80;99.90
30572;DHT22;17348;50.948;10.696;2022-08-01T00:13:05;19.80;99.90
30572;DHT22;17348;50.948;10.696;2022-08-01T00:16:07;19.80;99.90
30572;DHT22;17348;50.948;10.696;2022-08-01T00:19:11;19.70;99.90
30572;DHT22;17348;50.948;10.696;2022-08-01T00:22:13;19.70;99.90
30572;DHT22;17348;50.948;10.696;2022-08-01T00:25:15;19.70;99.90
30572;DHT22;17348;50.948;10.696;2022-08-01T00:28:17;19.60;99.90
30572;DHT22;17348;50.948;10.696;2022-08-01T00:31:20;19.60;99.90
30572;DHT22;17348;50.948;10.696;2022-08-01T00:34:23;19.60;99.90
30572;DHT22;17348;50.948;10.696;2022-08-01T00:37:26;19.50;99.90
30572;DHT22;17348;50.948;10.696;2022-08-01T00:40:28;19.40;99.90
30572;DHT22;17348;50.948;10.696;2022-08-01T00:43:30;19.40;99.90
30572;DHT22;17348;50.948;10.696;2022-08-01T00:46:33;19.40;99.90
30572;DHT22;17348;50.948;10.696;2022-08-01T00:49:36;19.40;99.90
30572;DHT22;17348;50.948;10.696;2022-08-01T00:52:40;19.40;99.90
30572;DHT22;17348;50.948;10.696;2022-08-01T00:55:42;19.40;99.90
30572;DHT22;17348;50.948;10.696;2022-08-01T00:58:45;19.40;99.90
30572;DHT22;17348;50.948;10.696;2022-08-01T01:01:47;19.30;99.90
30572;DHT22;17348;50.948;10.696;2022-08-01T01:04:51;19.30;99.90
30572;DHT22;17348;50.948;10.696;2022-08-01T01:07:58;19.30;99.90
30572;DHT22;17348;50.948;10.696;2022-08-01T01:11:06;19.30;99.90
30572;DHT22;17348;50.948;10.696;2022-08-01T01:14:16;19.30;99.90
30572;DHT22;17348;50.948;10.696;2022-08-01T01:17:27;19.30;99.90
30572;DHT22;17348;50.948;10.696;2022-08-01T01:20:35;19.30;99.90
30572;DHT22;17348;50.948;10.696;2022-08-01T01:23:46;19.30;99.90
30572;DHT22;17348;50.948;10.696;2022-08-01T01:26:59;19.30;99.90
30572;DHT22;17348;50.948;10.696;2022-08-01T01:30:06;19.30;99.90
30572;DHT22;17348;50.948;10.696;2022-08-01T01:33:10;19.30;99.90
30572;DHT22;17348;50.948;10.696;2022-08-01T01:36:16;19.30;99.90
30572;DHT22;17348;50.948;10.696;2022-08-01T01:39:20;19.30;99.90
30572;DHT22;17348;50.948;10.696;2022-08-01T01:42:25;19.30;99.90
30572;DHT22;17348;50.948;10.696;2022-08-01T01:45:30;19.30;99.90
30572;DHT22;17348;50.948;10.696;2022-08-01T01:48:34;19.30;99.90
30572;DHT22;17348;50.948;10.696;2022-08-01T01:51:38;19.30;99.90
30572;DHT22;17348;50.948;10.696;2022-08-01T01:54:46;19.30;99.90
30572;DHT22;17348;50.948;10.696;2022-08-01T01:57:51;19.30;99.90
30572;DHT22;17348;50.948;10.696;2022-08-01T02:00:58;19.30;99.90
30572;DHT22;17348;50.948;10.696;2022-08-01T02:04:03;19.30;99.90
30572;DHT22;17348;50.948;10.696;2022-08-01T02:07:05;19.30;99.90
30572;DHT22;17348;50.948;10.696;2022-08-01T02:10:10;19.30;99.90
30572;DHT22;17348;50.948;10.696;2022-08-01T02:13:14;19.30;99.90
30572;DHT22;17348;50.948;10.696;2022-08-01T02:16:21;19.30;99.90
30572;DHT22;17348;50.948;10.696;2022-08-01T02:19:25;19.30;99.90
30572;DHT22;17348;50.948;10.696;2022-08-01T02:22:31;19.30;99.90
30572;DHT22;17348;50.948;10.696;2022-08-01T02:25:38;19.30;99.90
30572;DHT22;17348;50.948;10.696;2022-08-01T02:28:45;19.30;99.90
30572;DHT22;17348;50.948;10.696;2022-08-01T02:31:52;19.30;99.90
30572;DHT22;17348;50.948;10.696;2022-08-01T02:34:57;19.20;99.90
30572;DHT22;17348;50.948;10.696;2022-08-01T02:38:04;19.20;99.90
30572;DHT22;17348;50.948;10.696;2022-08-01T02:41:09;19.20;99.90
30572;DHT22;17348;50.948;10.696;2022-08-01T02:44:16;19.10;99.90
30572;DHT22;17348;50.948;10.696;2022-08-01T02:47:23;19.10;99.90
30572;DHT22;17348;50.948;10.696;2022-08-01T02:50:28;19.10;99.90
30572;DHT22;17348;50.948;10.696;2022-08-01T02:53:33;19.10;99.90
30572;DHT22;17348;50.948;10.696;2022-08-01T02:56:38;19.10;99.90
30572;DHT22;17348;50.948;10.696;2022-08-01T02:59:42;19.10;99.90
30572;DHT22;17348;50.948;10.696;2022-08-01T03:02:47;19.10;99.90
30572;DHT22;17348;50.948;10.696;2022-08-01T03:05:51;19.10;99.90
30572;DHT22;17348;50.948;10.696;2022-08-01T03:08:55;19.10;99.90
30572;DHT22;17348;50.948;10.696;2022-08-01T03:12:01;19.10;99.90
30572;DHT22;17348;50.948;10.696;2022-08-01T03:15:05;19.10;99.90
30572;DHT22;17348;50.948;10.696;2022-08-01T03:18:10;19.10;99.90
30572;DHT22;17348;50.948;10.696;2022-08-01T03:21:14;19.10;99.90
30572;DHT22;17348;50.948;10.696;2022-08-01T03:24:18;19.20;99.90
30572;DHT22;17348;50.948;10.696;2022-08-01T03:27:21;19.10;99.90
30572;DHT22;17348;50.948;10.696;2022-08-01T03:30:27;19.10;99.90
30572;DHT22;17348;50.948;10.696;2022-08-01T03:33:34;19.10;99.90
30572;DHT22;17348;50.948;10.696;2022-08-01T03:36:42;19.20;99.90
30572;DHT22;17348;50.948;10.696;2022-08-01T03:39:49;19.20;99.90
30572;DHT22;17348;50.948;10.696;2022-08-01T03:42:56;19.20;99.90
30572;DHT22;17348;50.948;10.696;2022-08-01T03:46:03;19.20;99.90
30572;DHT22;17348;50.948;10.696;2022-08-01T03:49:14;19.20;99.90
30572;DHT22;17348;50.948;10.696;2022-08-01T03:52:16;19.20;99.90
30572;DHT22;17348;50.948;10.696;2022-08-01T03:55:19;19.20;99.90
30572;DHT22;17348;50.948;10.696;2022-08-01T03:58:22;19.20;99.90
30572;DHT22;17348;50.948;10.696;2022-08-01T04:01:26;19.30;99.90
30572;DHT22;17348;50.948;10.696;2022-08-01T04:04:30;19.20;99.90
30572;DHT22;17348;50.948;10.696;2022-08-01T04:07:33;19.30;99.90
30572;DHT22;17348;50.948;10.696;2022-08-01T04:10:36;19.30;99.90
30572;DHT22;17348;50.948;10.696;2022-08-01T04:13:39;19.30;99.90
30572;DHT22;17348;50.948;10.696;2022-08-01T04:16:41;19.30;99.90
30572;DHT22;17348;50.948;10.696;2022-08-01T04:19:45;19.30;99.90
30572;DHT22;17348;50.948;10.696;2022-08-01T04:22:47;19.40;99.90
30572;DHT22;17348;50.948;10.696;2022-08-01T04:25:50;19.30;99.90
30572;DHT22;17348;50.948;10.696;2022-08-01T04:28:53;19.40;99.90
30572;DHT22;17348;50.948;10.696;2022-08-01T04:31:58;19.40;99.90
30572;DHT22;17348;50.948;10.696;2022-08-01T04:35:06;19.40;99.90
30572;DHT22;17348;50.948;10.696;2022-08-01T04:38:10;19.50;99.90
30572;DHT22;17348;50.948;10.696;2022-08-01T04:41:14;19.50;99.90
30572;DHT22;17348;50.948;10.696;2022-08-01T04:44:17;19.50;99.90
30572;DHT22;17348;50.948;10.696;2022-08-01T04:47:20;19.60;99.90
30572;DHT22;17348;50.948;10.696;2022-08-01T04:50:23;19.60;99.90
30572;DHT22;17348;50.948;10.696;2022-08-01T04:53:26;19.70;99.90
30572;DHT22;17348;50.948;10.696;2022-08-01T04:56:28;19.80;99.90
30572;DHT22;17348;50.948;10.696;2022-08-01T04:59:34;19.80;99.90
30572;DHT22;17348;50.948;10.696;2022-08-01T05:02:43;20.20;99.90
30572;DHT22;17348;50.948;10.696;2022-08-01T05:05:47;20.50;99.90
30572;DHT22;17348;50.948;10.696;2022-08-01T05:08:49;20.60;99.90
30572;DHT22;17348;50.948;10.696;2022-08-01T05:11:51;20.60;99.90
30572;DHT22;17348;50.948;10.696;2022-08-01T05:14:54;20.50;99.90
30572;DHT22;17348;50.948;10.696;2022-08-01T05:17:56;20.50;99.90
30572;DHT22;17348;50.948;10.696;2022-08-01T05:21:00;20.50;99.90
30572;DHT22;17348;50.948;10.696;2022-08-01T05:24:04;20.50;99.90
30572;DHT22;17348;50.948;10.696;2022-08-01T05:27:06;20.40;99.90
30572;DHT22;17348;50.948;10.696;2022-08-01T05:30:10;20.30;99.90
30572;DHT22;17348;50.948;10.696;2022-08-01T05:33:12;20.30;99.90
30572;DHT22;17348;50.948;10.696;2022-08-01T05:36:16;20.20;99.90
30572;DHT22;17348;50.948;10.696;2022-08-01T05:39:18;20.20;99.90
30572;DHT22;17348;50.948;10.696;2022-08-01T05:42:20;20.20;99.90
30572;DHT22;17348;50.948;10.696;2022-08-01T05:45:23;20.20;99.90
30572;DHT22;17348;50.948;10.696;2022-08-01T05:48:25;20.20;99.90
30572;DHT22;17348;50.948;10.696;2022-08-01T05:51:29;20.20;99.90
30572;DHT22;17348;50.948;10.696;2022-08-01T05:57:42;20.30;99.90
30572;DHT22;17348;50.948;10.696;2022-08-01T06:00:44;20.40;99.90
30572;DHT22;17348;50.948;10.696;2022-08-01T06:03:46;20.40;99.90
30572;DHT22;17348;50.948;10.696;2022-08-01T06:06:50;20.40;99.90
30572;DHT22;17348;50.948;10.696;2022-08-01T06:09:52;20.40;99.90
30572;DHT22;17348;50.948;10.696;2022-08-01T06:26:17;20.50;99.90
30572;DHT22;17348;50.948;10.696;2022-08-01T06:29:21;20.60;99.90
30572;DHT22;17348;50.948;10.696;2022-08-01T06:32:33;20.60;99.90
30572;DHT22;17348;50.948;10.696;2022-08-01T06:35:35;20.60;99.90
30572;DHT22;17348;50.948;10.696;2022-08-01T06:38:38;20.50;99.90
30572;DHT22;17348;50.948;10.696;2022-08-01T06:41:41;20.50;99.90
30572;DHT22;17348;50.948;10.696;2022-08-01T06:44:46;20.50;99.90
30572;DHT22;17348;50.948;10.696;2022-08-01T06:47:49;20.50;99.90
30572;DHT22;17348;50.948;10.696;2022-08-01T06:50:51;20.40;99.90
30572;DHT22;17348;50.948;10.696;2022-08-01T06:54:08;20.30;99.90
30572;DHT22;17348;50.948;10.696;2022-08-01T06:57:12;20.30;99.90
30572;DHT22;17348;50.948;10.696;2022-08-01T07:00:15;20.40;99.90
30572;DHT22;17348;50.948;10.696;2022-08-01T07:03:19;20.40;99.90
30572;DHT22;17348;50.948;10.696;2022-08-01T07:06:22;20.50;99.90
30572;DHT22;17348;50.948;10.696;2022-08-01T07:09:25;20.60;99.90
30572;DHT22;17348;50.948;10.696;2022-08-01T07:12:29;20.60;99.90
30572;DHT22;17348;50.948;10.696;2022-08-01T07:15:31;20.70;99.90
30572;DHT22;17348;50.948;10.696;2022-08-01T07:18:34;20.70;99.90
30572;DHT22;17348;50.948;10.696;2022-08-01T07:21:36;20.70;99.90
30572;DHT22;17348;50.948;10.696;2022-08-01T07:24:39;20.70;99.90
30572;DHT22;17348;50.948;10.696;2022-08-01T07:27:44;20.70;99.90
30572;DHT22;17348;50.948;10.696;2022-08-01T07:30:46;20.70;99.90
30572;DHT22;17348;50.948;10.696;2022-08-01T07:33:48;20.70;99.90
30572;DHT22;17348;50.948;10.696;2022-08-01T07:36:51;20.80;99.90
30572;DHT22;17348;50.948;10.696;2022-08-01T07:39:53;20.80;99.90
30572;DHT22;17348;50.948;10.696;2022-08-01T07:42:57;20.80;99.90
30572;DHT22;17348;50.948;10.696;2022-08-01T07:45:59;20.90;99.90
30572;DHT22;17348;50.948;10.696;2022-08-01T07:49:01;20.90;99.90
30572;DHT22;17348;50.948;10.696;2022-08-01T07:52:04;20.90;99.90
30572;DHT22;17348;50.948;10.696;2022-08-01T07:55:07;21.10;99.90
30572;DHT22;17348;50.948;10.696;2022-08-01T07:58:11;21.20;99.90
30572;DHT22;17348;50.948;10.696;2022-08-01T08:01:13;21.30;99.90
30572;DHT22;17348;50.948;10.696;2022-08-01T08:04:16;21.40;99.90
30572;DHT22;17348;50.948;10.696;2022-08-01T08:07:18;21.50;99.90
30572;DHT22;17348;50.948;10.696;2022-08-01T08:10:20;21.60;99.90
30572;DHT22;17348;50.948;10.696;2022-08-01T08:13:24;21.70;99.90
30572;DHT22;17348;50.948;10.696;2022-08-01T08:16:26;21.80;99.90
30572;DHT22;17348;50.948;10.696;2022-08-01T08:19:29;21.80;99.90
30572;DHT22;17348;50.948;10.696;2022-08-01T08:22:34;21.80;99.90
30572;DHT22;17348;50.948;10.696;2022-08-01T08:25:36;22.00;99.90
30572;DHT22;17348;50.948;10.696;2022-08-01T08:28:40;22.10;99.90
30572;DHT22;17348;50.948;10.696;2022-08-01T08:31:42;22.10;99.90
30572;DHT22;17348;50.948;10.696;2022-08-01T08:34:45;22.20;99.90
30572;DHT22;17348;50.948;10.696;2022-08-01T08:37:47;22.30;99.90
30572;DHT22;17348;50.948;10.696;2022-08-01T08:40:50;22.40;99.90
30572;DHT22;17348;50.948;10.696;2022-08-01T08:43:53;22.30;99.90
30572;DHT22;17348;50.948;10.696;2022-08-01T08:46:59;22.30;99.90
30572;DHT22;17348;50.948;10.696;2022-08-01T08:50:03;22.40;99.90
30572;DHT22;17348;50.948;10.696;2022-08-01T08:53:09;22.40;99.90
30572;DHT22;17348;50.948;10.696;2022-08-01T08:56:13;22.50;99.90
30572;DHT22;17348;50.948;10.696;2022-08-01T08:59:17;22.50;99.90
30572;DHT22;17348;50.948;10.696;2022-08-01T09:02:20;22.70;99.90
30572;DHT22;17348;50.948;10.696;2022-08-01T09:05:23;22.80;99.90
30572;DHT22;17348;50.948;10.696;2022-08-01T09:08:27;22.80;99.90
30572;DHT22;17348;50.948;10.696;2022-08-01T09:11:29;22.70;99.90
30572;DHT22;17348;50.948;10.696;2022-08-01T09:14:33;22.60;99.90
30572;DHT22;17348;50.948;10.696;2022-08-01T09:17:40;22.60;99.90
30572;DHT22;17348;50.948;10.696;2022-08-01T09:20:42;22.60;99.90
30572;DHT22;17348;50.948;10.696;2022-08-01T09:23:46;22.70;99.90
30572;DHT22;17348;50.948;10.696;2022-08-01T09:26:49;22.70;99.90
30572;DHT22;17348;50.948;10.696;2022-08-01T09:29:54;22.70;99.90
30572;DHT22;17348;50.948;10.696;2022-08-01T09:32:58;22.80;99.90
30572;DHT22;17348;50.948;10.696;2022-08-01T09:36:01;22.90;99.90
30572;DHT22;17348;50.948;10.696;2022-08-01T09:39:12;23.20;99.90
30572;DHT22;17348;50.948;10.696;2022-08-01T09:42:21;23.30;99.90
30572;DHT22;17348;50.948;10.696;2022-08-01T09:45:34;23.40;99.90
30572;DHT22;17348;50.948;10.696;2022-08-01T09:48:37;23.60;99.90
30572;DHT22;17348;50.948;10.696;2022-08-01T09:51:40;23.60;99.90
30572;DHT22;17348;50.948;10.696;2022-08-01T09:54:44;23.70;99.90
30572;DHT22;17348;50.948;10.696;2022-08-01T09:57:55;23.60;99.90
30572;DHT22;17348;50.948;10.696;2022-08-01T10:01:00;23.50;99.90
30572;DHT22;17348;50.948;10.696;2022-08-01T10:04:06;23.50;99.90
30572;DHT22;17348;50.948;10.696;2022-08-01T10:07:08;23.60;99.90
30572;DHT22;17348;50.948;10.696;2022-08-01T10:10:12;23.80;99.90
30572;DHT22;17348;50.948;10.696;2022-08-01T10:13:15;23.80;99.90
30572;DHT22;17348;50.948;10.696;2022-08-01T10:16:19;23.70;99.90
30572;DHT22;17348;50.948;10.696;2022-08-01T10:19:24;23.80;99.90
30572;DHT22;17348;50.948;10.696;2022-08-01T10:22:27;23.90;99.90
30572;DHT22;17348;50.948;10.696;2022-08-01T10:25:35;23.90;99.90
30572;DHT22;17348;50.948;10.696;2022-08-01T10:28:39;23.80;99.90
30572;DHT22;17348;50.948;10.696;2022-08-01T10:31:47;23.80;99.90
30572;DHT22;17348;50.948;10.696;2022-08-01T10:34:49;23.90;99.90
30572;DHT22;17348;50.948;10.696;2022-08-01T10:37:52;24.00;99.90
30572;DHT22;17348;50.948;10.696;2022-08-01T10:40:59;24.30;99.90
30572;DHT22;17348;50.948;10.696;2022-08-01T10:44:06;24.40;99.90
30572;DHT22;17348;50.948;10.696;2022-08-01T10:47:12;24.60;99.90
30572;DHT22;17348;50.948;10.696;2022-08-01T10:50:17;24.90;99.90
30572;DHT22;17348;50.948;10.696;2022-08-01T10:53:26;25.10;99.90
30572;DHT22;17348;50.948;10.696;2022-08-01T10:56:43;25.10;99.90
30572;DHT22;17348;50.948;10.696;2022-08-01T10:59:50;25.00;99.90
30572;DHT22;17348;50.948;10.696;2022-08-01T11:03:00;24.80;99.90
30572;DHT22;17348;50.948;10.696;2022-08-01T11:06:04;24.70;99.90
30572;DHT22;17348;50.948;10.696;2022-08-01T11:09:29;24.70;99.90
30572;DHT22;17348;50.948;10.696;2022-08-01T11:12:38;24.70;99.90
30572;DHT22;17348;50.948;10.696;2022-08-01T11:15:42;24.60;99.90
30572;DHT22;17348;50.948;10.696;2022-08-01T11:18:51;24.60;99.90
30572;DHT22;17348;50.948;10.696;2022-08-01T11:21:59;24.80;99.90
30572;DHT22;17348;50.948;10.696;2022-08-01T11:25:05;25.00;99.90
30572;DHT22;17348;50.948;10.696;2022-08-01T11:28:22;25.20;99.90
30572;DHT22;17348;50.948;10.696;2022-08-01T11:31:27;25.40;99.90
30572;DHT22;17348;50.948;10.696;2022-08-01T11:34:54;25.70;99.90
30572;DHT22;17348;50.948;10.696;2022-08-01T11:38:22;25.70;99.90
30572;DHT22;17348;50.948;10.696;2022-08-01T11:41:26;25.80;99.90
30572;DHT22;17348;50.948;10.696;2022-08-01T11:44:48;25.70;99.90
30572;DHT22;17348;50.948;10.696;2022-08-01T11:47:51;25.50;99.90
30572;DHT22;17348;50.948;10.696;2022-08-01T11:50:58;25.20;99.90
30572;DHT22;17348;50.948;10.696;2022-08-01T11:54:00;24.90;99.90
30572;DHT22;17348;50.948;10.696;2022-08-01T11:57:04;24.70;99.90
30572;DHT22;17348;50.948;10.696;2022-08-01T12:00:11;24.50;99.90
30572;DHT22;17348;50.948;10.696;2022-08-01T12:03:14;24.40;99.90
30572;DHT22;17348;50.948;10.696;2022-08-01T12:06:27;24.60;99.90
30572;DHT22;17348;50.948;10.696;2022-08-01T12:09:30;24.90;99.90
30572;DHT22;17348;50.948;10.696;2022-08-01T12:12:36;25.30;99.90
30572;DHT22;17348;50.948;10.696;2022-08-01T12:15:39;25.50;99.90
30572;DHT22;17348;50.948;10.696;2022-08-01T12:18:43;25.80;99.90
30572;DHT22;17348;50.948;10.696;2022-08-01T12:22:05;26.10;99.90
30572;DHT22;17348;50.948;10.696;2022-08-01T12:25:09;26.10;99.90
30572;DHT22;17348;50.948;10.696;2022-08-01T12:28:12;26.20;99.90
30572;DHT22;17348;50.948;10.696;2022-08-01T12:31:14;26.30;99.90
30572;DHT22;17348;50.948;10.696;2022-08-01T12:34:26;26.40;99.90
30572;DHT22;17348;50.948;10.696;2022-08-01T12:37:32;26.40;99.90
30572;DHT22;17348;50.948;10.696;2022-08-01T12:40:35;26.40;99.90
30572;DHT22;17348;50.948;10.696;2022-08-01T12:43:38;26.60;99.90
30572;DHT22;17348;50.948;10.696;2022-08-01T12:46:41;26.50;99.90
30572;DHT22;17348;50.948;10.696;2022-08-01T12:49:45;26.50;99.90
30572;DHT22;17348;50.948;10.696;2022-08-01T12:52:49;26.70;99.90
30572;DHT22;17348;50.948;10.696;2022-08-01T12:55:53;26.60;99.90
30572;DHT22;17348;50.948;10.696;2022-08-01T12:58:56;26.50;99.90
30572;DHT22;17348;50.948;10.696;2022-08-01T13:02:08;26.60;99.90
30572;DHT22;17348;50.948;10.696;2022-08-01T13:05:12;26.80;99.90
30572;DHT22;17348;50.948;10.696;2022-08-01T13:08:18;26.90;99.90
30572;DHT22;17348;50.948;10.696;2022-08-01T13:11:21;26.70;99.90
30572;DHT22;17348;50.948;10.696;2022-08-01T13:14:26;26.90;99.70
30572;DHT22;17348;50.948;10.696;2022-08-01T13:17:30;26.80;99.70
30572;DHT22;17348;50.948;10.696;2022-08-01T13:20:33;26.80;99.90
30572;DHT22;17348;50.948;10.696;2022-08-01T13:23:37;26.70;99.90
30572;DHT22;17348;50.948;10.696;2022-08-01T13:26:42;26.80;99.90
30572;DHT22;17348;50.948;10.696;2022-08-01T13:29:44;26.90;99.90
30572;DHT22;17348;50.948;10.696;2022-08-01T13:32:57;27.00;99.90
30572;DHT22;17348;50.948;10.696;2022-08-01T13:36:00;27.20;99.90
30572;DHT22;17348;50.948;10.696;2022-08-01T13:39:04;27.10;99.70
30572;DHT22;17348;50.948;10.696;2022-08-01T13:42:20;27.10;99.40
30572;DHT22;17348;50.948;10.696;2022-08-01T13:45:23;27.00;98.90
30572;DHT22;17348;50.948;10.696;2022-08-01T13:48:25;27.10;99.30
30572;DHT22;17348;50.948;10.696;2022-08-01T13:51:28;27.00;98.70
30572;DHT22;17348;50.948;10.696;2022-08-01T13:54:32;27.00;98.40
30572;DHT22;17348;50.948;10.696;2022-08-01T13:57:34;26.90;98.20
30572;DHT22;17348;50.948;10.696;2022-08-01T14:00:37;26.70;98.80
30572;DHT22;17348;50.948;10.696;2022-08-01T14:03:39;26.70;98.50
30572;DHT22;17348;50.948;10.696;2022-08-01T14:06:42;26.80;98.60
30572;DHT22;17348;50.948;10.696;2022-08-01T14:09:45;26.90;99.10
30572;DHT22;17348;50.948;10.696;2022-08-01T14:12:48;27.10;98.90
30572;DHT22;17348;50.948;10.696;2022-08-01T14:15:50;27.30;99.50
30572;DHT22;17348;50.948;10.696;2022-08-01T14:18:52;27.40;99.00
30572;DHT22;17348;50.948;10.696;2022-08-01T14:21:55;27.50;99.70
30572;DHT22;17348;50.948;10.696;2022-08-01T14:24:59;27.40;99.90
30572;DHT22;17348;50.948;10.696;2022-08-01T14:28:02;27.20;99.90
30572;DHT22;17348;50.948;10.696;2022-08-01T14:31:04;27.20;99.90
30572;DHT22;17348;50.948;10.696;2022-08-01T14:34:07;27.30;99.90
30572;DHT22;17348;50.948;10.696;2022-08-01T14:37:09;27.30;99.50
30572;DHT22;17348;50.948;10.696;2022-08-01T14:40:13;27.30;99.70
30572;DHT22;17348;50.948;10.696;2022-08-01T14:43:15;27.20;99.60
30572;DHT22;17348;50.948;10.696;2022-08-01T14:46:17;27.10;99.60
30572;DHT22;17348;50.948;10.696;2022-08-01T14:49:20;26.90;99.70
30572;DHT22;17348;50.948;10.696;2022-08-01T14:52:22;26.80;99.80
30572;DHT22;17348;50.948;10.696;2022-08-01T14:55:26;26.80;99.90
30572;DHT22;17348;50.948;10.696;2022-08-01T14:58:29;26.90;99.90
30572;DHT22;17348;50.948;10.696;2022-08-01T15:01:31;27.20;99.90
30572;DHT22;17348;50.948;10.696;2022-08-01T15:04:33;27.40;99.90
30572;DHT22;17348;50.948;10.696;2022-08-01T15:07:36;27.50;99.70
30572;DHT22;17348;50.948;10.696;2022-08-01T15:10:40;27.60;99.40
30572;DHT22;17348;50.948;10.696;2022-08-01T15:13:42;27.50;99.40
30572;DHT22;17348;50.948;10.696;2022-08-01T15:16:44;27.30;99.60
30572;DHT22;17348;50.948;10.696;2022-08-01T15:19:48;26.90;99.70
30572;DHT22;17348;50.948;10.696;2022-08-01T15:22:54;26.80;99.90
30572;DHT22;17348;50.948;10.696;2022-08-01T15:25:57;26.50;99.70
30572;DHT22;17348;50.948;10.696;2022-08-01T15:28:59;26.20;99.90
30572;DHT22;17348;50.948;10.696;2022-08-01T15:32:02;26.00;99.90
30572;DHT22;17348;50.948;10.696;2022-08-01T15:35:06;25.90;99.90
30572;DHT22;17348;50.948;10.696;2022-08-01T15:38:10;25.90;99.90
30572;DHT22;17348;50.948;10.696;2022-08-01T15:41:14;25.80;99.90
30572;DHT22;17348;50.948;10.696;2022-08-01T15:44:17;25.80;99.90
30572;DHT22;17348;50.948;10.696;2022-08-01T15:47:20;25.80;99.90
30572;DHT22;17348;50.948;10.696;2022-08-01T15:50:23;26.00;99.90
30572;DHT22;17348;50.948;10.696;2022-08-01T15:53:25;26.00;99.90
30572;DHT22;17348;50.948;10.696;2022-08-01T15:56:29;26.00;99.90
30572;DHT22;17348;50.948;10.696;2022-08-01T15:59:31;26.10;99.90
30572;DHT22;17348;50.948;10.696;2022-08-01T16:02:33;26.00;99.90
30572;DHT22;17348;50.948;10.696;2022-08-01T16:05:36;26.00;99.90
30572;DHT22;17348;50.948;10.696;2022-08-01T16:08:38;26.00;99.90
30572;DHT22;17348;50.948;10.696;2022-08-01T16:11:42;26.00;99.90
30572;DHT22;17348;50.948;10.696;2022-08-01T16:14:44;26.10;99.90
30572;DHT22;17348;50.948;10.696;2022-08-01T16:17:47;26.10;99.90
30572;DHT22;17348;50.948;10.696;2022-08-01T16:20:49;26.00;99.90
30572;DHT22;17348;50.948;10.696;2022-08-01T16:23:51;26.00;99.90
30572;DHT22;17348;50.948;10.696;2022-08-01T16:26:55;25.90;99.90
30572;DHT22;17348;50.948;10.696;2022-08-01T16:29:57;25.80;99.90
30572;DHT22;17348;50.948;10.696;2022-08-01T16:33:00;25.70;99.90
30572;DHT22;17348;50.948;10.696;2022-08-01T16:36:02;25.60;99.90
30572;DHT22;17348;50.948;10.696;2022-08-01T16:39:05;25.60;99.90
30572;DHT22;17348;50.948;10.696;2022-08-01T16:42:09;25.60;99.90
30572;DHT22;17348;50.948;10.696;2022-08-01T16:45:11;25.60;99.90
30572;DHT22;17348;50.948;10.696;2022-08-01T16:48:15;25.60;99.90
30572;DHT22;17348;50.948;10.696;2022-08-01T16:51:18;25.60;99.90
30572;DHT22;17348;50.948;10.696;2022-08-01T16:54:20;25.50;99.90
30572;DHT22;17348;50.948;10.696;2022-08-01T16:57:24;25.40;99.90
30572;DHT22;17348;50.948;10.696;2022-08-01T17:00:26;25.30;99.90
30572;DHT22;17348;50.948;10.696;2022-08-01T17:03:29;25.20;99.90
30572;DHT22;17348;50.948;10.696;2022-08-01T17:06:31;25.20;99.90
30572;DHT22;17348;50.948;10.696;2022-08-01T17:09:33;25.10;99.90
30572;DHT22;17348;50.948;10.696;2022-08-01T17:12:37;24.90;99.90
30572;DHT22;17348;50.948;10.696;2022-08-01T17:15:40;24.80;99.90
30572;DHT22;17348;50.948;10.696;2022-08-01T17:18:42;24.60;99.90
30572;DHT22;17348;50.948;10.696;2022-08-01T17:21:44;24.50;99.90
30572;DHT22;17348;50.948;10.696;2022-08-01T17:24:47;24.40;99.90
30572;DHT22;17348;50.948;10.696;2022-08-01T17:27:52;24.30;99.90
30572;DHT22;17348;50.948;10.696;2022-08-01T17:30:54;24.30;99.90
30572;DHT22;17348;50.948;10.696;2022-08-01T17:33:57;24.30;99.90
30572;DHT22;17348;50.948;10.696;2022-08-01T17:36:59;24.30;99.90
30572;DHT22;17348;50.948;10.696;2022-08-01T17:40:03;24.20;99.90
30572;DHT22;17348;50.948;10.696;2022-08-01T17:43:07;24.20;99.90
30572;DHT22;17348;50.948;10.696;2022-08-01T17:46:09;24.10;99.90
30572;DHT22;17348;50.948;10.696;2022-08-01T17:49:12;24.00;99.90
30572;DHT22;17348;50.948;10.696;2022-08-01T17:52:14;23.90;99.90
30572;DHT22;17348;50.948;10.696;2022-08-01T17:55:16;23.90;99.90
30572;DHT22;17348;50.948;10.696;2022-08-01T17:58:20;23.80;99.90
30572;DHT22;17348;50.948;10.696;2022-08-01T18:01:22;23.70;99.90
30572;DHT22;17348;50.948;10.696;2022-08-01T18:04:25;23.50;99.90
30572;DHT22;17348;50.948;10.696;2022-08-01T18:07:27;23.40;99.90
30572;DHT22;17348;50.948;10.696;2022-08-01T18:10:30;23.30;99.90
30572;DHT22;17348;50.948;10.696;2022-08-01T18:13:33;23.10;99.90
30572;DHT22;17348;50.948;10.696;2022-08-01T18:16:36;23.00;99.90
30572;DHT22;17348;50.948;10.696;2022-08-01T18:19:38;23.00;99.90
30572;DHT22;17348;50.948;10.696;2022-08-01T18:22:40;22.80;99.90
30572;DHT22;17348;50.948;10.696;2022-08-01T18:25:43;22.80;99.90
30572;DHT22;17348;50.948;10.696;2022-08-01T18:28:46;22.70;99.90
30572;DHT22;17348;50.948;10.696;2022-08-01T18:31:49;22.60;99.90
30572;DHT22;17348;50.948;10.696;2022-08-01T18:34:51;22.50;99.90
30572;DHT22;17348;50.948;10.696;2022-08-01T18:37:54;22.50;99.90
30572;DHT22;17348;50.948;10.696;2022-08-01T18:40:58;22.40;99.90
30572;DHT22;17348;50.948;10.696;2022-08-01T18:44:03;22.40;99.90
30572;DHT22;17348;50.948;10.696;2022-08-01T18:47:06;22.30;99.90
30572;DHT22;17348;50.948;10.696;2022-08-01T18:50:08;22.20;99.90
30572;DHT22;17348;50.948;10.696;2022-08-01T18:53:11;22.10;99.90
30572;DHT22;17348;50.948;10.696;2022-08-01T18:56:13;22.10;99.90
30572;DHT22;17348;50.948;10.696;2022-08-01T18:59:17;22.00;99.90
30572;DHT22;17348;50.948;10.696;2022-08-01T19:02:20;21.90;99.90
30572;DHT22;17348;50.948;10.696;2022-08-01T19:05:22;21.80;99.90
30572;DHT22;17348;50.948;10.696;2022-08-01T19:08:25;21.80;99.90
30572;DHT22;17348;50.948;10.696;2022-08-01T19:11:27;21.70;99.90
30572;DHT22;17348;50.948;10.696;2022-08-01T19:14:31;21.60;99.90
30572;DHT22;17348;50.948;10.696;2022-08-01T19:17:33;21.50;99.90
30572;DHT22;17348;50.948;10.696;2022-08-01T19:20:35;21.40;99.90